sensor_id;sensor_type;location;lat;lon;timestamp;P1;durP1;ratioP1;P2;durP2;ratioP2
65658;SDS011;60181;53.258;6.932;2023-12-20T00:00:57;2.50;;;0.70;;
65658;SDS011;60181;53.258;6.932;2023-12-20T00:05:09;2.50;;;0.70;;
65658;SDS011;60181;53.258;6.932;2023-12-20T00:09:21;3.30;;;0.70;;
65658;SDS011;60181;53.258;6.932;2023-12-20T00:13:33;3.30;;;0.70;;
65658;SDS011;60181;53.258;6.932;2023-12-20T00:17:45;3.30;;;0.70;;
65658;SDS011;60181;53.258;6.932;2023-12-20T00:21:57;3.50;;;0.80;;
65658;SDS011;60181;53.258;6.932;2023-12-20T00:26:09;3.50;;;0.80;;
65658;SDS011;60181;53.258;6.932;2023-12-20T00:30:21;3.40;;;0.80;;
65658;SDS011;60181;53.258;6.932;2023-12-20T00:34:33;3.40;;;0.80;;
65658;SDS011;60181;53.258;6.932;2023-12-20T00:38:45;3.40;;;0.80;;
65658;SDS011;60181;53.258;6.932;2023-12-20T00:42:57;2.10;;;0.60;;
65658;SDS011;60181;53.258;6.932;2023-12-20T00:47:09;2.10;;;0.60;;
65658;SDS011;60181;53.258;6.932;2023-12-20T00:51:21;3.70;;;0.90;;
65658;SDS011;60181;53.258;6.932;2023-12-20T00:55:33;3.70;;;0.90;;
65658;SDS011;60181;53.258;6.932;2023-12-20T00:59:45;4.20;;;0.80;;
65658;SDS011;60181;53.258;6.932;2023-12-20T01:03:57;4.20;;;0.80;;
65658;SDS011;60181;53.258;6.932;2023-12-20T01:08:09;4.20;;;0.80;;
65658;SDS011;60181;53.258;6.932;2023-12-20T01:12:21;2.80;;;0.60;;
65658;SDS011;60181;53.258;6.932;2023-12-20T01:16:33;2.80;;;0.60;;
65658;SDS011;60181;53.258;6.932;2023-12-20T01:20:45;4.10;;;0.80;;
65658;SDS011;60181;53.258;6.932;2023-12-20T01:24:57;4.10;;;0.80;;
65658;SDS011;60181;53.258;6.932;2023-12-20T01:29:09;4.10;;;0.80;;
65658;SDS011;60181;53.258;6.932;2023-12-20T01:33:21;2.80;;;0.80;;
65658;SDS011;60181;53.258;6.932;2023-12-20T01:37:33;2.80;;;0.80;;
65658;SDS011;60181;53.258;6.932;2023-12-20T01:41:45;3.40;;;0.70;;
65658;SDS011;60181;53.258;6.932;2023-12-20T01:45:57;3.40;;;0.70;;
65658;SDS011;60181;53.258;6.932;2023-12-20T01:50:09;2.10;;;0.80;;
65658;SDS011;60181;53.258;6.932;2023-12-20T01:54:21;2.10;;;0.80;;
65658;SDS011;60181;53.258;6.932;2023-12-20T01:58:33;2.10;;;0.80;;
65658;SDS011;60181;53.258;6.932;2023-12-20T02:02:45;5.00;;;0.90;;
65658;SDS011;60181;53.258;6.932;2023-12-20T02:06:57;5.00;;;0.90;;
65658;SDS011;60181;53.258;6.932;2023-12-20T02:11:10;2.60;;;0.70;;
65658;SDS011;60181;53.258;6.932;2023-12-20T02:15:21;2.60;;;0.70;;
65658;SDS011;60181;53.258;6.932;2023-12-20T02:19:33;3.50;;;0.70;;
65658;SDS011;60181;53.258;6.932;2023-12-20T02:23:45;3.50;;;0.70;;
65658;SDS011;60181;53.258;6.932;2023-12-20T02:27:57;3.50;;;0.70;;
65658;SDS011;60181;53.258;6.932;2023-12-20T02:32:09;4.20;;;0.80;;
65658;SDS011;60181;53.258;6.932;2023-12-20T02:36:21;4.20;;;0.80;;
65658;SDS011;60181;53.258;6.932;2023-12-20T02:40:33;5.40;;;0.90;;
65658;SDS011;60181;53.258;6.932;2023-12-20T02:44:45;5.40;;;0.90;;
65658;SDS011;60181;53.258;6.932;2023-12-20T02:48:57;5.40;;;0.90;;
65658;SDS011;60181;53.258;6.932;2023-12-20T02:53:09;5.10;;;0.80;;
65658;SDS011;60181;53.258;6.932;2023-12-20T02:57:21;5.10;;;0.80;;
65658;SDS011;60181;53.258;6.932;2023-12-20T03:01:33;2.40;;;0.70;;
65658;SDS011;60181;53.258;6.932;2023-12-20T03:05:45;2.40;;;0.70;;
65658;SDS011;60181;53.258;6.932;2023-12-20T03:09:57;3.30;;;0.70;;
65658;SDS011;60181;53.258;6.932;2023-12-20T03:14:09;3.30;;;0.70;;
65658;SDS011;60181;53.258;6.932;2023-12-20T03:18:21;3.30;;;0.70;;
65658;SDS011;60181;53.258;6.932;2023-12-20T03:22:33;5.90;;;0.90;;
65658;SDS011;60181;53.258;6.932;2023-12-20T03:26:45;5.90;;;0.90;;
65658;SDS011;60181;53.258;6.932;2023-12-20T03:30:57;5.40;;;0.80;;
65658;SDS011;60181;53.258;6.932;2023-12-20T03:35:09;5.40;;;0.80;;
65658;SDS011;60181;53.258;6.932;2023-12-20T03:39:21;4.20;;;1.10;;
65658;SDS011;60181;53.258;6.932;2023-12-20T03:43:33;4.20;;;1.10;;
65658;SDS011;60181;53.258;6.932;2023-12-20T03:47:45;4.20;;;1.10;;
65658;SDS011;60181;53.258;6.932;2023-12-20T03:51:57;5.90;;;0.90;;
65658;SDS011;60181;53.258;6.932;2023-12-20T03:56:09;5.90;;;0.90;;
65658;SDS011;60181;53.258;6.932;2023-12-20T04:00:21;3.60;;;0.90;;
65658;SDS011;60181;53.258;6.932;2023-12-20T04:04:33;3.60;;;0.90;;
65658;SDS011;60181;53.258;6.932;2023-12-20T04:08:45;3.60;;;0.90;;
65658;SDS011;60181;53.258;6.932;2023-12-20T04:12:57;5.80;;;1.10;;
65658;SDS011;60181;53.258;6.932;2023-12-20T04:17:09;5.80;;;1.10;;
65658;SDS011;60181;53.258;6.932;2023-12-20T04:21:21;5.70;;;1.00;;
65658;SDS011;60181;53.258;6.932;2023-12-20T04:25:33;5.70;;;1.00;;
65658;SDS011;60181;53.258;6.932;2023-12-20T04:29:45;3.80;;;0.90;;
65658;SDS011;60181;53.258;6.932;2023-12-20T04:33:57;3.80;;;0.90;;
65658;SDS011;60181;53.258;6.932;2023-12-20T04:38:09;3.80;;;0.90;;
65658;SDS011;60181;53.258;6.932;2023-12-20T04:42:21;5.90;;;0.90;;
65658;SDS011;60181;53.258;6.932;2023-12-20T04:46:33;5.90;;;0.90;;
65658;SDS011;60181;53.258;6.932;2023-12-20T04:50:45;4.20;;;1.00;;
65658;SDS011;60181;53.258;6.932;2023-12-20T04:54:57;4.20;;;1.00;;
65658;SDS011;60181;53.258;6.932;2023-12-20T04:59:09;4.20;;;1.00;;
65658;SDS011;60181;53.258;6.932;2023-12-20T05:03:21;5.50;;;0.90;;
65658;SDS011;60181;53.258;6.932;2023-12-20T05:07:33;5.50;;;0.90;;
65658;SDS011;60181;53.258;6.932;2023-12-20T05:11:45;5.00;;;1.00;;
65658;SDS011;60181;53.258;6.932;2023-12-20T05:15:57;5.00;;;1.00;;
65658;SDS011;60181;53.258;6.932;2023-12-20T05:20:09;3.50;;;0.70;;
65658;SDS011;60181;53.258;6.932;2023-12-20T05:24:21;3.50;;;0.70;;
65658;SDS011;60181;53.258;6.932;2023-12-20T05:28:33;3.50;;;0.70;;
65658;SDS011;60181;53.258;6.932;2023-12-20T05:32:45;4.20;;;1.10;;
65658;SDS011;60181;53.258;6.932;2023-12-20T05:36:57;4.20;;;1.10;;
65658;SDS011;60181;53.258;6.932;2023-12-20T05:41:09;5.60;;;1.00;;
65658;SDS011;60181;53.258;6.932;2023-12-20T05:45:21;5.60;;;1.00;;
65658;SDS011;60181;53.258;6.932;2023-12-20T05:49:33;6.10;;;1.30;;
65658;SDS011;60181;53.258;6.932;2023-12-20T05:53:45;6.10;;;1.30;;
65658;SDS011;60181;53.258;6.932;2023-12-20T05:57:57;6.10;;;1.30;;
65658;SDS011;60181;53.258;6.932;2023-12-20T06:02:09;4.30;;;1.00;;
65658;SDS011;60181;53.258;6.932;2023-12-20T06:06:20;4.30;;;1.00;;
65658;SDS011;60181;53.258;6.932;2023-12-20T06:10:33;6.10;;;1.10;;
65658;SDS011;60181;53.258;6.932;2023-12-20T06:14:44;6.10;;;1.10;;
65658;SDS011;60181;53.258;6.932;2023-12-20T06:18:56;6.10;;;1.10;;
65658;SDS011;60181;53.258;6.932;2023-12-20T06:23:08;8.10;;;1.50;;
65658;SDS011;60181;53.258;6.932;2023-12-20T06:27:20;8.10;;;1.50;;
65658;SDS011;60181;53.258;6.932;2023-12-20T06:31:32;6.80;;;1.10;;
65658;SDS011;60181;53.258;6.932;2023-12-20T06:35:44;6.80;;;1.10;;
65658;SDS011;60181;53.258;6.932;2023-12-20T06:39:57;9.30;;;1.20;;
65658;SDS011;60181;53.258;6.932;2023-12-20T06:44:08;9.30;;;1.20;;
65658;SDS011;60181;53.258;6.932;2023-12-20T06:48:20;9.30;;;1.20;;
65658;SDS011;60181;53.258;6.932;2023-12-20T06:52:32;9.80;;;1.20;;
65658;SDS011;60181;53.258;6.932;2023-12-20T06:56:44;9.80;;;1.20;;
65658;SDS011;60181;53.258;6.932;2023-12-20T07:00:56;7.90;;;1.20;;
65658;SDS011;60181;53.258;6.932;2023-12-20T07:05:08;7.90;;;1.20;;
65658;SDS011;60181;53.258;6.932;2023-12-20T07:09:20;6.00;;;1.10;;
65658;SDS011;60181;53.258;6.932;2023-12-20T07:13:32;6.00;;;1.10;;
65658;SDS011;60181;53.258;6.932;2023-12-20T07:17:44;6.00;;;1.10;;
65658;SDS011;60181;53.258;6.932;2023-12-20T07:21:56;6.90;;;1.20;;
65658;SDS011;60181;53.258;6.932;2023-12-20T07:26:09;6.90;;;1.20;;
65658;SDS011;60181;53.258;6.932;2023-12-20T07:30:20;7.80;;;1.50;;
65658;SDS011;60181;53.258;6.932;2023-12-20T07:34:32;7.80;;;1.50;;
65658;SDS011;60181;53.258;6.932;2023-12-20T07:38:44;7.80;;;1.50;;
65658;SDS011;60181;53.258;6.932;2023-12-20T07:42:56;8.20;;;1.30;;
65658;SDS011;60181;53.258;6.932;2023-12-20T07:47:08;8.20;;;1.30;;
65658;SDS011;60181;53.258;6.932;2023-12-20T07:51:20;7.00;;;1.30;;
65658;SDS011;60181;53.258;6.932;2023-12-20T07:55:32;7.00;;;1.30;;
65658;SDS011;60181;53.258;6.932;2023-12-20T07:59:44;6.00;;;1.40;;
65658;SDS011;60181;53.258;6.932;2023-12-20T08:03:56;6.00;;;1.40;;
65658;SDS011;60181;53.258;6.932;2023-12-20T08:08:08;6.00;;;1.40;;
65658;SDS011;60181;53.258;6.932;2023-12-20T08:12:20;6.00;;;1.50;;
65658;SDS011;60181;53.258;6.932;2023-12-20T08:16:32;6.00;;;1.50;;
65658;SDS011;60181;53.258;6.932;2023-12-20T08:20:44;6.70;;;1.30;;
65658;SDS011;60181;53.258;6.932;2023-12-20T08:24:56;6.70;;;1.30;;
65658;SDS011;60181;53.258;6.932;2023-12-20T08:29:08;6.70;;;1.30;;
65658;SDS011;60181;53.258;6.932;2023-12-20T08:33:20;6.00;;;1.30;;
65658;SDS011;60181;53.258;6.932;2023-12-20T08:37:32;6.00;;;1.30;;
65658;SDS011;60181;53.258;6.932;2023-12-20T08:41:44;7.50;;;1.20;;
65658;SDS011;60181;53.258;6.932;2023-12-20T08:45:56;7.50;;;1.20;;
65658;SDS011;60181;53.258;6.932;2023-12-20T08:50:09;7.20;;;1.40;;
65658;SDS011;60181;53.258;6.932;2023-12-20T08:54:20;7.20;;;1.40;;
65658;SDS011;60181;53.258;6.932;2023-12-20T08:58:32;7.20;;;1.40;;
65658;SDS011;60181;53.258;6.932;2023-12-20T09:02:44;7.40;;;1.30;;
65658;SDS011;60181;53.258;6.932;2023-12-20T09:06:59;7.40;;;1.30;;
65658;SDS011;60181;53.258;6.932;2023-12-20T09:11:08;6.20;;;1.20;;
65658;SDS011;60181;53.258;6.932;2023-12-20T09:15:20;6.20;;;1.20;;
65658;SDS011;60181;53.258;6.932;2023-12-20T09:19:32;6.10;;;1.10;;
65658;SDS011;60181;53.258;6.932;2023-12-20T09:23:44;6.10;;;1.10;;
65658;SDS011;60181;53.258;6.932;2023-12-20T09:27:56;6.10;;;1.10;;
65658;SDS011;60181;53.258;6.932;2023-12-20T09:32:08;4.20;;;1.10;;
65658;SDS011;60181;53.258;6.932;2023-12-20T09:36:20;4.20;;;1.10;;
65658;SDS011;60181;53.258;6.932;2023-12-20T09:40:32;3.30;;;1.10;;
65658;SDS011;60181;53.258;6.932;2023-12-20T09:44:44;3.30;;;1.10;;
65658;SDS011;60181;53.258;6.932;2023-12-20T09:48:56;3.30;;;1.10;;
65658;SDS011;60181;53.258;6.932;2023-12-20T09:53:09;5.30;;;1.10;;
65658;SDS011;60181;53.258;6.932;2023-12-20T09:57:20;5.30;;;1.10;;
65658;SDS011;60181;53.258;6.932;2023-12-20T10:01:33;12.80;;;1.40;;
65658;SDS011;60181;53.258;6.932;2023-12-20T10:05:44;12.80;;;1.40;;
65658;SDS011;60181;53.258;6.932;2023-12-20T10:09:56;10.70;;;1.20;;
65658;SDS011;60181;53.258;6.932;2023-12-20T10:14:10;10.70;;;1.20;;
65658;SDS011;60181;53.258;6.932;2023-12-20T10:18:20;10.70;;;1.20;;
65658;SDS011;60181;53.258;6.932;2023-12-20T10:22:32;8.10;;;1.10;;
65658;SDS011;60181;53.258;6.932;2023-12-20T10:26:44;8.10;;;1.10;;
65658;SDS011;60181;53.258;6.932;2023-12-20T10:30:56;5.60;;;1.10;;
65658;SDS011;60181;53.258;6.932;2023-12-20T10:35:08;5.60;;;1.10;;
65658;SDS011;60181;53.258;6.932;2023-12-20T10:39:20;10.60;;;1.10;;
65658;SDS011;60181;53.258;6.932;2023-12-20T10:43:32;10.60;;;1.10;;
65658;SDS011;60181;53.258;6.932;2023-12-20T10:47:46;10.60;;;1.10;;
65658;SDS011;60181;53.258;6.932;2023-12-20T10:51:56;7.20;;;1.20;;
65658;SDS011;60181;53.258;6.932;2023-12-20T10:56:08;7.20;;;1.20;;
65658;SDS011;60181;53.258;6.932;2023-12-20T11:00:20;8.70;;;1.50;;
65658;SDS011;60181;53.258;6.932;2023-12-20T11:17:11;8.30;;;1.20;;
65658;SDS011;60181;53.258;6.932;2023-12-20T11:21:20;5.20;;;1.10;;
65658;SDS011;60181;53.258;6.932;2023-12-20T11:29:54;4.00;;;1.00;;
65658;SDS011;60181;53.258;6.932;2023-12-20T11:33:59;4.00;;;1.00;;
65658;SDS011;60181;53.258;6.932;2023-12-20T11:38:09;4.00;;;1.00;;
65658;SDS011;60181;53.258;6.932;2023-12-20T11:42:20;5.60;;;1.10;;
65658;SDS011;60181;53.258;6.932;2023-12-20T11:46:32;5.60;;;1.10;;
65658;SDS011;60181;53.258;6.932;2023-12-20T11:50:44;8.30;;;1.10;;
65658;SDS011;60181;53.258;6.932;2023-12-20T11:54:56;8.30;;;1.10;;
65658;SDS011;60181;53.258;6.932;2023-12-20T11:59:08;8.30;;;1.10;;
65658;SDS011;60181;53.258;6.932;2023-12-20T12:03:20;8.70;;;1.20;;
65658;SDS011;60181;53.258;6.932;2023-12-20T12:07:33;8.70;;;1.20;;
65658;SDS011;60181;53.258;6.932;2023-12-20T12:11:44;4.10;;;1.00;;
65658;SDS011;60181;53.258;6.932;2023-12-20T12:15:56;4.10;;;1.00;;
65658;SDS011;60181;53.258;6.932;2023-12-20T12:20:08;4.90;;;0.80;;
65658;SDS011;60181;53.258;6.932;2023-12-20T12:24:20;4.90;;;0.80;;
65658;SDS011;60181;53.258;6.932;2023-12-20T12:28:34;4.90;;;0.80;;
65658;SDS011;60181;53.258;6.932;2023-12-20T12:32:44;4.10;;;0.90;;
65658;SDS011;60181;53.258;6.932;2023-12-20T12:36:56;4.10;;;0.90;;
65658;SDS011;60181;53.258;6.932;2023-12-20T12:41:08;5.40;;;1.10;;
65658;SDS011;60181;53.258;6.932;2023-12-20T12:45:20;5.40;;;1.10;;
65658;SDS011;60181;53.258;6.932;2023-12-20T12:49:32;4.50;;;0.90;;
65658;SDS011;60181;53.258;6.932;2023-12-20T12:53:44;4.50;;;0.90;;
65658;SDS011;60181;53.258;6.932;2023-12-20T12:57:56;4.50;;;0.90;;
65658;SDS011;60181;53.258;6.932;2023-12-20T13:02:08;4.90;;;1.00;;
65658;SDS011;60181;53.258;6.932;2023-12-20T13:06:20;4.90;;;1.00;;
65658;SDS011;60181;53.258;6.932;2023-12-20T13:10:32;5.40;;;1.20;;
65658;SDS011;60181;53.258;6.932;2023-12-20T13:14:44;5.40;;;1.20;;
65658;SDS011;60181;53.258;6.932;2023-12-20T13:18:56;5.40;;;1.20;;
65658;SDS011;60181;53.258;6.932;2023-12-20T13:23:08;4.70;;;1.20;;
65658;SDS011;60181;53.258;6.932;2023-12-20T13:27:20;4.70;;;1.20;;
65658;SDS011;60181;53.258;6.932;2023-12-20T13:31:32;10.60;;;1.50;;
65658;SDS011;60181;53.258;6.932;2023-12-20T13:35:44;10.60;;;1.50;;
65658;SDS011;60181;53.258;6.932;2023-12-20T13:39:56;3.90;;;0.90;;
65658;SDS011;60181;53.258;6.932;2023-12-20T13:44:08;3.90;;;0.90;;
65658;SDS011;60181;53.258;6.932;2023-12-20T13:48:20;3.90;;;0.90;;
65658;SDS011;60181;53.258;6.932;2023-12-20T13:52:32;3.80;;;0.80;;
65658;SDS011;60181;53.258;6.932;2023-12-20T13:56:44;3.80;;;0.80;;
65658;SDS011;60181;53.258;6.932;2023-12-20T14:00:56;4.80;;;0.90;;
65658;SDS011;60181;53.258;6.932;2023-12-20T14:05:08;4.80;;;0.90;;
65658;SDS011;60181;53.258;6.932;2023-12-20T14:09:20;4.60;;;1.10;;
65658;SDS011;60181;53.258;6.932;2023-12-20T14:13:32;4.60;;;1.10;;
65658;SDS011;60181;53.258;6.932;2023-12-20T14:17:44;4.60;;;1.10;;
65658;SDS011;60181;53.258;6.932;2023-12-20T14:21:56;4.20;;;0.90;;
65658;SDS011;60181;53.258;6.932;2023-12-20T14:26:08;4.20;;;0.90;;
65658;SDS011;60181;53.258;6.932;2023-12-20T14:30:20;5.40;;;1.20;;
65658;SDS011;60181;53.258;6.932;2023-12-20T14:34:32;5.40;;;1.20;;
65658;SDS011;60181;53.258;6.932;2023-12-20T14:38:44;5.40;;;1.20;;
65658;SDS011;60181;53.258;6.932;2023-12-20T14:42:56;8.10;;;1.10;;
65658;SDS011;60181;53.258;6.932;2023-12-20T14:47:08;8.10;;;1.10;;
65658;SDS011;60181;53.258;6.932;2023-12-20T14:51:20;4.20;;;1.00;;
65658;SDS011;60181;53.258;6.932;2023-12-20T14:55:32;4.20;;;1.00;;
65658;SDS011;60181;53.258;6.932;2023-12-20T14:59:44;6.40;;;1.10;;
65658;SDS011;60181;53.258;6.932;2023-12-20T15:03:56;6.40;;;1.10;;
65658;SDS011;60181;53.258;6.932;2023-12-20T15:08:08;6.40;;;1.10;;
65658;SDS011;60181;53.258;6.932;2023-12-20T15:12:20;3.40;;;0.90;;
65658;SDS011;60181;53.258;6.932;2023-12-20T15:16:32;3.40;;;0.90;;
65658;SDS011;60181;53.258;6.932;2023-12-20T15:20:44;5.50;;;0.90;;
65658;SDS011;60181;53.258;6.932;2023-12-20T15:24:57;5.50;;;0.90;;
65658;SDS011;60181;53.258;6.932;2023-12-20T15:29:08;5.50;;;0.90;;
65658;SDS011;60181;53.258;6.932;2023-12-20T15:33:20;4.80;;;0.80;;
65658;SDS011;60181;53.258;6.932;2023-12-20T15:37:32;4.80;;;0.80;;
65658;SDS011;60181;53.258;6.932;2023-12-20T15:41:44;3.70;;;0.90;;
65658;SDS011;60181;53.258;6.932;2023-12-20T15:45:56;3.70;;;0.90;;
65658;SDS011;60181;53.258;6.932;2023-12-20T15:50:08;5.30;;;1.00;;
65658;SDS011;60181;53.258;6.932;2023-12-20T15:54:20;5.30;;;1.00;;
65658;SDS011;60181;53.258;6.932;2023-12-20T15:58:32;5.30;;;1.00;;
65658;SDS011;60181;53.258;6.932;2023-12-20T16:02:44;3.60;;;0.80;;
65658;SDS011;60181;53.258;6.932;2023-12-20T16:06:56;3.60;;;0.80;;
65658;SDS011;60181;53.258;6.932;2023-12-20T16:11:08;3.20;;;0.80;;
65658;SDS011;60181;53.258;6.932;2023-12-20T16:15:20;3.20;;;0.80;;
65658;SDS011;60181;53.258;6.932;2023-12-20T16:19:32;5.00;;;1.00;;
65658;SDS011;60181;53.258;6.932;2023-12-20T16:23:44;5.00;;;1.00;;
65658;SDS011;60181;53.258;6.932;2023-12-20T16:27:56;5.00;;;1.00;;
65658;SDS011;60181;53.258;6.932;2023-12-20T16:32:08;3.10;;;0.90;;
65658;SDS011;60181;53.258;6.932;2023-12-20T16:36:20;3.10;;;0.90;;
65658;SDS011;60181;53.258;6.932;2023-12-20T16:40:32;5.00;;;0.90;;
65658;SDS011;60181;53.258;6.932;2023-12-20T16:44:44;5.00;;;0.90;;
65658;SDS011;60181;53.258;6.932;2023-12-20T16:48:56;5.00;;;0.90;;
65658;SDS011;60181;53.258;6.932;2023-12-20T16:53:08;4.50;;;0.80;;
65658;SDS011;60181;53.258;6.932;2023-12-20T16:57:20;4.50;;;0.80;;
65658;SDS011;60181;53.258;6.932;2023-12-20T17:01:32;4.50;;;0.90;;
65658;SDS011;60181;53.258;6.932;2023-12-20T17:05:44;4.50;;;0.90;;
65658;SDS011;60181;53.258;6.932;2023-12-20T17:09:56;3.10;;;0.80;;
65658;SDS011;60181;53.258;6.932;2023-12-20T17:14:08;3.10;;;0.80;;
65658;SDS011;60181;53.258;6.932;2023-12-20T17:18:20;3.10;;;0.80;;
65658;SDS011;60181;53.258;6.932;2023-12-20T17:22:32;3.60;;;0.90;;
65658;SDS011;60181;53.258;6.932;2023-12-20T17:26:44;3.60;;;0.90;;
65658;SDS011;60181;53.258;6.932;2023-12-20T17:30:56;5.80;;;1.10;;
65658;SDS011;60181;53.258;6.932;2023-12-20T17:35:08;5.80;;;1.10;;
65658;SDS011;60181;53.258;6.932;2023-12-20T17:39:20;3.70;;;0.80;;
65658;SDS011;60181;53.258;6.932;2023-12-20T17:43:32;3.70;;;0.80;;
65658;SDS011;60181;53.258;6.932;2023-12-20T17:47:44;3.70;;;0.80;;
65658;SDS011;60181;53.258;6.932;2023-12-20T17:51:56;4.00;;;0.90;;
65658;SDS011;60181;53.258;6.932;2023-12-20T17:56:08;4.00;;;0.90;;
65658;SDS011;60181;53.258;6.932;2023-12-20T18:00:20;4.10;;;0.80;;
65658;SDS011;60181;53.258;6.932;2023-12-20T18:04:32;4.10;;;0.80;;
65658;SDS011;60181;53.258;6.932;2023-12-20T18:08:44;4.10;;;0.80;;
65658;SDS011;60181;53.258;6.932;2023-12-20T18:12:56;5.50;;;0.80;;
65658;SDS011;60181;53.258;6.932;2023-12-20T18:17:08;5.50;;;0.80;;
65658;SDS011;60181;53.258;6.932;2023-12-20T18:21:20;3.00;;;0.90;;
65658;SDS011;60181;53.258;6.932;2023-12-20T18:25:32;3.00;;;0.90;;
65658;SDS011;60181;53.258;6.932;2023-12-20T18:29:44;4.30;;;1.00;;
65658;SDS011;60181;53.258;6.932;2023-12-20T18:33:56;4.30;;;1.00;;
65658;SDS011;60181;53.258;6.932;2023-12-20T18:38:08;4.30;;;1.00;;
65658;SDS011;60181;53.258;6.932;2023-12-20T18:42:20;3.70;;;0.80;;
65658;SDS011;60181;53.258;6.932;2023-12-20T18:46:31;3.70;;;0.80;;
65658;SDS011;60181;53.258;6.932;2023-12-20T18:50:43;3.50;;;0.80;;
65658;SDS011;60181;53.258;6.932;2023-12-20T18:54:55;3.50;;;0.80;;
65658;SDS011;60181;53.258;6.932;2023-12-20T18:59:08;3.50;;;0.80;;
65658;SDS011;60181;53.258;6.932;2023-12-20T19:03:19;2.50;;;0.70;;
65658;SDS011;60181;53.258;6.932;2023-12-20T19:07:32;2.50;;;0.70;;
65658;SDS011;60181;53.258;6.932;2023-12-20T19:11:43;3.10;;;0.90;;
65658;SDS011;60181;53.258;6.932;2023-12-20T19:15:56;3.10;;;0.90;;
65658;SDS011;60181;53.258;6.932;2023-12-20T19:20:08;1.80;;;0.80;;
65658;SDS011;60181;53.258;6.932;2023-12-20T19:24:19;1.80;;;0.80;;
65658;SDS011;60181;53.258;6.932;2023-12-20T19:28:31;1.80;;;0.80;;
65658;SDS011;60181;53.258;6.932;2023-12-20T19:32:43;3.40;;;0.80;;
65658;SDS011;60181;53.258;6.932;2023-12-20T19:36:55;3.40;;;0.80;;
65658;SDS011;60181;53.258;6.932;2023-12-20T19:41:07;3.60;;;0.80;;
65658;SDS011;60181;53.258;6.932;2023-12-20T19:45:20;3.60;;;0.80;;
65658;SDS011;60181;53.258;6.932;2023-12-20T19:49:31;2.10;;;0.70;;
65658;SDS011;60181;53.258;6.932;2023-12-20T19:53:43;2.10;;;0.70;;
65658;SDS011;60181;53.258;6.932;2023-12-20T19:57:55;2.10;;;0.70;;
65658;SDS011;60181;53.258;6.932;2023-12-20T20:02:07;2.10;;;0.60;;
65658;SDS011;60181;53.258;6.932;2023-12-20T20:06:19;2.10;;;0.60;;
65658;SDS011;60181;53.258;6.932;2023-12-20T20:10:31;1.90;;;0.70;;
65658;SDS011;60181;53.258;6.932;2023-12-20T20:14:43;1.90;;;0.70;;
65658;SDS011;60181;53.258;6.932;2023-12-20T20:18:55;1.90;;;0.70;;
65658;SDS011;60181;53.258;6.932;2023-12-20T20:23:07;3.00;;;0.60;;
65658;SDS011;60181;53.258;6.932;2023-12-20T20:27:19;3.00;;;0.60;;
65658;SDS011;60181;53.258;6.932;2023-12-20T20:31:31;2.10;;;0.70;;
65658;SDS011;60181;53.258;6.932;2023-12-20T20:35:43;2.10;;;0.70;;
65658;SDS011;60181;53.258;6.932;2023-12-20T20:39:55;1.80;;;0.70;;
65658;SDS011;60181;53.258;6.932;2023-12-20T20:44:07;1.80;;;0.70;;
65658;SDS011;60181;53.258;6.932;2023-12-20T20:48:19;1.80;;;0.70;;
65658;SDS011;60181;53.258;6.932;2023-12-20T20:52:31;1.70;;;0.60;;
65658;SDS011;60181;53.258;6.932;2023-12-20T20:56:43;1.70;;;0.60;;
65658;SDS011;60181;53.258;6.932;2023-12-20T21:00:55;2.10;;;0.70;;
65658;SDS011;60181;53.258;6.932;2023-12-20T21:05:08;2.10;;;0.70;;
65658;SDS011;60181;53.258;6.932;2023-12-20T21:09:19;1.80;;;0.70;;
65658;SDS011;60181;53.258;6.932;2023-12-20T21:13:31;1.80;;;0.70;;
65658;SDS011;60181;53.258;6.932;2023-12-20T21:17:43;1.80;;;0.70;;
65658;SDS011;60181;53.258;6.932;2023-12-20T21:21:55;1.70;;;0.60;;
65658;SDS011;60181;53.258;6.932;2023-12-20T21:26:08;1.70;;;0.60;;
65658;SDS011;60181;53.258;6.932;2023-12-20T21:30:19;1.80;;;0.80;;
65658;SDS011;60181;53.258;6.932;2023-12-20T21:34:31;1.80;;;0.80;;
65658;SDS011;60181;53.258;6.932;2023-12-20T21:38:43;1.80;;;0.80;;
65658;SDS011;60181;53.258;6.932;2023-12-20T21:42:55;2.90;;;0.70;;
65658;SDS011;60181;53.258;6.932;2023-12-20T21:47:07;2.90;;;0.70;;
65658;SDS011;60181;53.258;6.932;2023-12-20T21:51:19;1.80;;;0.70;;
65658;SDS011;60181;53.258;6.932;2023-12-20T21:55:31;1.80;;;0.70;;
65658;SDS011;60181;53.258;6.932;2023-12-20T21:59:43;9.60;;;1.00;;
65658;SDS011;60181;53.258;6.932;2023-12-20T22:03:55;9.60;;;1.00;;
65658;SDS011;60181;53.258;6.932;2023-12-20T22:08:07;9.60;;;1.00;;
65658;SDS011;60181;53.258;6.932;2023-12-20T22:12:19;3.20;;;0.90;;
65658;SDS011;60181;53.258;6.932;2023-12-20T22:16:31;3.20;;;0.90;;
65658;SDS011;60181;53.258;6.932;2023-12-20T22:20:43;5.90;;;1.10;;
65658;SDS011;60181;53.258;6.932;2023-12-20T22:24:55;5.90;;;1.10;;
65658;SDS011;60181;53.258;6.932;2023-12-20T22:29:07;5.90;;;1.10;;
65658;SDS011;60181;53.258;6.932;2023-12-20T22:33:19;3.50;;;1.00;;
65658;SDS011;60181;53.258;6.932;2023-12-20T22:37:31;3.50;;;1.00;;
65658;SDS011;60181;53.258;6.932;2023-12-20T22:41:43;4.70;;;0.90;;
65658;SDS011;60181;53.258;6.932;2023-12-20T22:45:55;4.70;;;0.90;;
65658;SDS011;60181;53.258;6.932;2023-12-20T22:50:08;4.70;;;0.80;;
65658;SDS011;60181;53.258;6.932;2023-12-20T22:54:19;4.70;;;0.80;;
65658;SDS011;60181;53.258;6.932;2023-12-20T22:58:31;4.70;;;0.80;;
65658;SDS011;60181;53.258;6.932;2023-12-20T23:02:43;3.10;;;0.70;;
65658;SDS011;60181;53.258;6.932;2023-12-20T23:06:55;3.10;;;0.70;;
65658;SDS011;60181;53.258;6.932;2023-12-20T23:11:07;3.20;;;1.10;;
65658;SDS011;60181;53.258;6.932;2023-12-20T23:15:19;3.20;;;1.10;;
65658;SDS011;60181;53.258;6.932;2023-12-20T23:19:31;3.70;;;0.90;;
65658;SDS011;60181;53.258;6.932;2023-12-20T23:23:43;3.70;;;0.90;;
65658;SDS011;60181;53.258;6.932;2023-12-20T23:27:55;3.70;;;0.90;;
65658;SDS011;60181;53.258;6.932;2023-12-20T23:32:07;3.90;;;1.00;;
65658;SDS011;60181;53.258;6.932;2023-12-20T23:36:19;3.90;;;1.00;;
65658;SDS011;60181;53.258;6.932;2023-12-20T23:40:31;3.50;;;1.10;;
65658;SDS011;60181;53.258;6.932;2023-12-20T23:44:43;3.50;;;1.10;;
65658;SDS011;60181;53.258;6.932;2023-12-20T23:48:55;3.50;;;1.10;;
65658;SDS011;60181;53.258;6.932;2023-12-20T23:53:07;2.90;;;0.70;;
65658;SDS011;60181;53.258;6.932;2023-12-20T23:57:19;2.90;;;0.70;;
